Información del aeropuerto WABB

Información de pista
Pista 11 Longitud 11715 ft Anchura 150 ft
Elevación 36 ft Umbral ft Rumbo 109
Pista 29 Longitud 11715 ft Anchura 150 ft
Elevación 25 ft Umbral ft Rumbo 289
Frecuencias del aeropuerto
Tipo APP Nombre BIAK APP Frecuencia 121.2 MHZ
Tipo ATIS Nombre ATIS Frecuencia 126.5 MHZ
Tipo INFO Nombre BIAK INFO Frecuencia 295.6 MHZ
Tipo TWR Nombre TWR Frecuencia 118.1 MHZ
Radioayudas del aeropuerto
Tipo VOR-DME Nombre Biak Frecuencia 112500 KHZ
Tipo NDB Nombre Biak Frecuencia 230 KHZ
Información meteorológica del aeropuerto y NOTAM
ADDS - METARS form results

(2234 UTC 08 August 2022)
Data provider http://aviationweather.gov/metar/data/
 
Forecast for: WABB (BIAK/FRANS KAISI, ID)
Text: TAF WABB 081700Z 0818/1000 31002KT 9999 SCT018
Forecast period: 1800 UTC 08 August 2022 to 0000 UTC 10 August 2022
Forecast type: FROM: standard forecast or significant change
Winds: from the NW (310 degrees) at 2 MPH (2 knots; 1.0 m/s)
Visibility: 6 or more miles (10+ km)
Ceiling: at least 12,000 feet AGL
Clouds: scattered clouds at 1800 feet AGL
Weather: no significant weather forecast for this period
Text: TEMPO 0818/0822 5000 RA
Forecast period: 1800 to 2200 UTC 08 August 2022
Forecast type: TEMPORARY: The following changes expected for less than half the time period
Visibility: 3 miles (5 km)
Ceiling: unknown
Clouds: missing
Weather: RA  (moderate rain)